Time;durP1;ratioP1;P1;durP2;ratioP2;P2;SDS_P1;SDS_P2;PMS_P1;PMS_P2;Temp;Humidity;BMP_temperature;BMP_pressure;BME280_temperature;BME280_humidity;BME280_pressure;Samples;Min_cycle;Max_cycle;Signal;HPM_P1;HPM_P2
2021/12/21 00:01:56;;;;;;;24.42;16.95;;;9.40;96.70;;;;;;4954119;28;20902;-72
2021/12/21 00:04:24;;;;;;;24.85;17.88;;;9.40;96.70;;;;;;4971936;28;20066;-72
2021/12/21 00:06:53;;;;;;;26.55;18.13;;;9.40;96.70;;;;;;4956880;28;20042;-72
2021/12/21 00:09:21;;;;;;;27.95;19.48;;;9.30;96.70;;;;;;4970316;28;20543;-72
2021/12/21 00:11:50;;;;;;;23.25;17.75;;;9.30;96.70;;;;;;4951587;28;20075;-72
2021/12/21 00:14:30;;;;;;;28.17;18.90;;;9.20;96.70;;;;;;4954258;28;20042;-72
2021/12/21 00:17:13;;;;;;;24.83;18.17;;;9.20;96.70;;;;;;4953981;28;20424;-72
2021/12/21 00:24:59;;;;;;;22.40;18.10;;;9.20;96.70;;;;;;4974109;28;20046;-72
2021/12/21 00:27:28;;;;;;;24.10;17.85;;;9.20;96.70;;;;;;4932217;28;20053;-72
2021/12/21 00:29:58;;;;;;;29.15;17.23;;;9.10;96.70;;;;;;4970665;28;20057;-72
2021/12/21 00:32:28;;;;;;;25.58;17.67;;;9.00;96.70;;;;;;4968171;28;20469;-72
2021/12/21 00:34:56;;;;;;;27.48;19.25;;;9.00;96.70;;;;;;4969348;28;20133;-72
2021/12/21 00:37:27;;;;;;;25.30;18.83;;;9.00;96.70;;;;;;4967508;28;20113;-72
2021/12/21 00:39:56;;;;;;;24.67;18.42;;;8.90;96.70;;;;;;4970398;28;20054;-72
2021/12/21 00:42:25;;;;;;;29.13;20.63;;;8.90;96.70;;;;;;4952056;28;20428;-72
2021/12/21 00:44:53;;;;;;;27.60;19.50;;;8.90;96.70;;;;;;4970827;28;20078;-72
2021/12/21 00:47:23;;;;;;;31.17;18.30;;;8.90;96.70;;;;;;4970270;28;20074;-72
2021/12/21 00:49:59;;;;;;;25.52;17.13;;;8.90;96.70;;;;;;4972389;28;20039;-72
2021/12/21 00:52:28;;;;;;;23.02;16.80;;;8.80;96.70;;;;;;4942055;28;20141;-72
2021/12/21 00:54:57;;;;;;;23.30;16.13;;;8.80;96.70;;;;;;4956644;28;20039;-72
2021/12/21 00:57:25;;;;;;;22.65;15.38;;;8.80;96.70;;;;;;4950673;28;20047;-72
2021/12/21 00:59:53;;;;;;;18.48;14.32;;;8.80;96.70;;;;;;4954306;28;20045;-72
2021/12/21 01:02:23;;;;;;;21.00;14.73;;;8.70;96.70;;;;;;4968270;28;20050;-72
2021/12/21 01:04:52;;;;;;;19.40;14.77;;;8.60;96.70;;;;;;4953304;28;20279;-72
2021/12/21 01:07:28;;;;;;;18.10;12.98;;;8.60;96.70;;;;;;4969911;28;20062;-72
2021/12/21 01:10:31;;;;;;;20.20;13.87;;;8.50;96.70;;;;;;4968161;28;20043;-72
2021/12/21 01:13:13;;;;;;;18.10;12.77;;;8.50;96.70;;;;;;4971488;28;20153;-72
2021/12/21 01:18:15;;;;;;;17.65;12.38;;;8.50;96.70;;;;;;4973994;28;20098;-72
2021/12/21 01:20:50;;;;;;;16.75;11.60;;;8.40;96.70;;;;;;4952219;28;20054;-72
2021/12/21 01:26:07;;;;;;;16.30;11.85;;;8.40;96.70;;;;;;4973900;28;20544;-72
2021/12/21 01:34:47;;;;;;;17.00;12.15;;;8.40;96.70;;;;;;4956613;28;20055;-72
2021/12/21 01:42:02;;;;;;;20.67;15.23;;;8.40;96.70;;;;;;4958902;28;20141;-73
2021/12/21 01:50:08;;;;;;;21.63;15.60;;;8.40;96.70;;;;;;4960539;28;20054;-71
2021/12/21 01:52:37;;;;;;;21.00;15.68;;;8.40;96.70;;;;;;4957599;28;20056;-72
2021/12/21 01:55:05;;;;;;;21.88;16.70;;;8.30;96.70;;;;;;4955361;28;20630;-71
2021/12/21 01:57:34;;;;;;;24.90;17.63;;;8.20;96.70;;;;;;4973055;28;20039;-71
2021/12/21 02:00:03;;;;;;;25.95;17.25;;;8.30;96.70;;;;;;4976686;28;20050;-71
2021/12/21 02:02:32;;;;;;;23.88;16.80;;;8.30;96.70;;;;;;4976180;28;20106;-71
2021/12/21 02:05:01;;;;;;;22.42;17.52;;;8.30;96.70;;;;;;4958285;28;20039;-71
2021/12/21 02:07:30;;;;;;;23.33;17.67;;;8.30;96.70;;;;;;4978768;28;20048;-71
2021/12/21 02:09:59;;;;;;;20.85;16.58;;;8.40;96.70;;;;;;4960496;28;20055;-71
2021/12/21 02:12:27;;;;;;;22.92;16.63;;;8.40;96.70;;;;;;4961533;28;20578;-71
2021/12/21 02:14:57;;;;;;;22.77;17.55;;;8.40;96.70;;;;;;4957943;28;20046;-71
2021/12/21 02:23:30;;;;;;;22.10;15.30;;;8.10;96.70;;;;;;4972898;28;20069;-71
2021/12/21 02:31:10;;;;;;;23.85;16.33;;;8.20;96.70;;;;;;4972792;28;20097;-72
2021/12/21 02:33:38;;;;;;;21.15;16.63;;;8.20;96.70;;;;;;4976051;28;20039;-71
2021/12/21 02:36:08;;;;;;;19.10;16.30;;;8.10;96.70;;;;;;4943084;28;20130;-72
2021/12/21 02:38:36;;;;;;;19.85;17.23;;;8.10;96.70;;;;;;4943377;28;20082;-71
2021/12/21 02:41:04;;;;;;;22.35;16.90;;;8.20;96.70;;;;;;4955764;28;20456;-71
2021/12/21 02:43:35;;;;;;;22.92;17.08;;;8.20;96.70;;;;;;4972641;28;20386;-71
2021/12/21 02:46:03;;;;;;;20.33;16.33;;;8.20;96.70;;;;;;4957752;28;20568;-72
2021/12/21 02:48:32;;;;;;;20.65;15.45;;;8.30;96.70;;;;;;4943272;28;20532;-71
2021/12/21 02:51:01;;;;;;;18.38;14.70;;;8.20;96.70;;;;;;4973171;28;20859;-72
2021/12/21 02:53:31;;;;;;;22.48;15.93;;;8.20;96.70;;;;;;4972990;28;20508;-71
2021/12/21 02:55:59;;;;;;;21.45;14.75;;;8.20;96.70;;;;;;4951075;28;20413;-71
2021/12/21 02:58:28;;;;;;;19.25;14.07;;;8.20;96.70;;;;;;4972308;28;20034;-72
2021/12/21 03:00:56;;;;;;;18.73;13.85;;;8.20;96.70;;;;;;4967694;28;20034;-71
2021/12/21 03:03:26;;;;;;;21.20;13.63;;;8.10;96.70;;;;;;4942469;28;20552;-71
2021/12/21 03:05:57;;;;;;;17.77;11.95;;;8.10;96.70;;;;;;4956162;28;20149;-71
2021/12/21 03:08:43;;;;;;;13.80;10.77;;;8.00;96.70;;;;;;4956086;28;20070;-72
2021/12/21 03:16:27;;;;;;;12.77;7.97;;;8.10;96.70;;;;;;4952335;28;20054;-72
2021/12/21 03:18:57;;;;;;;11.43;7.70;;;8.00;96.70;;;;;;4968944;28;20042;-72
2021/12/21 03:21:26;;;;;;;11.77;7.40;;;8.00;96.70;;;;;;4975590;28;20074;-72
2021/12/21 03:23:55;;;;;;;11.88;8.02;;;8.00;96.70;;;;;;4983027;28;20480;-72
2021/12/21 03:26:25;;;;;;;9.73;7.30;;;8.10;96.70;;;;;;4956196;28;20047;-72
2021/12/21 03:28:53;;;;;;;11.00;7.30;;;8.00;96.70;;;;;;4957301;28;20564;-72
2021/12/21 03:31:21;;;;;;;9.98;7.45;;;8.00;96.70;;;;;;4974092;28;20052;-72
2021/12/21 03:33:50;;;;;;;10.18;7.10;;;8.00;96.70;;;;;;4972733;28;20050;-73
2021/12/21 03:36:19;;;;;;;9.30;7.70;;;7.90;96.70;;;;;;4956091;28;20134;-71
2021/12/21 03:38:56;;;;;;;10.43;7.40;;;7.90;96.70;;;;;;4935334;28;20050;-72
2021/12/21 03:41:26;;;;;;;10.23;8.13;;;7.90;96.70;;;;;;4954998;28;20061;-72
2021/12/21 03:43:56;;;;;;;11.13;8.57;;;7.90;96.70;;;;;;4960182;28;20054;-72
2021/12/21 03:46:24;;;;;;;10.02;8.38;;;7.90;96.70;;;;;;4972216;28;20070;-72
2021/12/21 03:48:53;;;;;;;10.75;8.75;;;7.90;96.70;;;;;;4953695;28;20737;-72
2021/12/21 03:51:21;;;;;;;9.88;7.32;;;7.90;96.70;;;;;;4942862;28;20568;-72
2021/12/21 03:53:50;;;;;;;10.23;7.28;;;7.90;96.70;;;;;;4974235;28;20126;-72
2021/12/21 03:58:54;;;;;;;9.05;7.30;;;7.90;96.70;;;;;;4952199;28;20046;-72
2021/12/21 04:01:23;;;;;;;8.27;6.85;;;8.00;96.70;;;;;;4938481;28;20121;-71
2021/12/21 04:03:52;;;;;;;10.38;7.40;;;8.10;96.70;;;;;;4938666;28;20038;-71
2021/12/21 04:06:20;;;;;;;9.35;8.05;;;8.10;96.70;;;;;;4972341;28;20388;-71
2021/12/21 04:08:48;;;;;;;11.77;8.05;;;8.10;96.70;;;;;;4952430;28;20126;-71
2021/12/21 04:11:16;;;;;;;9.48;8.20;;;8.00;96.70;;;;;;4954992;28;20038;-71
2021/12/21 04:13:44;;;;;;;11.73;8.55;;;8.00;96.70;;;;;;4973928;28;20038;-71
2021/12/21 04:16:14;;;;;;;10.23;8.43;;;8.10;96.70;;;;;;4973788;28;20039;-71
2021/12/21 04:18:42;;;;;;;10.25;8.38;;;8.00;96.70;;;;;;4955463;28;20042;-71
2021/12/21 04:21:14;;;;;;;12.45;8.50;;;8.00;96.70;;;;;;4954325;28;20042;-71
2021/12/21 04:23:43;;;;;;;11.70;7.93;;;7.90;96.70;;;;;;4974125;28;20038;-71
2021/12/21 04:26:14;;;;;;;10.93;8.60;;;7.90;96.70;;;;;;4961162;28;20037;-71
2021/12/21 04:28:43;;;;;;;13.48;9.82;;;7.90;96.70;;;;;;4966813;28;20055;-71
2021/12/21 04:31:11;;;;;;;12.18;9.43;;;7.90;96.70;;;;;;4969486;28;20117;-71
2021/12/21 04:33:45;;;;;;;19.73;10.70;;;7.90;96.70;;;;;;4972753;28;20049;-71
2021/12/21 04:36:14;;;;;;;13.50;9.50;;;7.90;96.70;;;;;;4938403;28;20035;-71
2021/12/21 04:38:46;;;;;;;12.68;10.07;;;8.00;96.70;;;;;;4933919;28;20528;-71
2021/12/21 04:41:22;;;;;;;16.63;10.93;;;8.00;96.70;;;;;;4948182;28;20093;-71
2021/12/21 04:43:51;;;;;;;13.50;10.35;;;8.00;96.70;;;;;;4970401;28;20094;-71
2021/12/21 04:46:20;;;;;;;17.20;10.07;;;8.10;96.70;;;;;;4968279;28;20121;-71
2021/12/21 04:48:50;;;;;;;16.00;11.00;;;8.00;96.70;;;;;;4971151;28;20105;-71
2021/12/21 04:51:18;;;;;;;14.82;10.38;;;8.10;96.70;;;;;;4977764;28;20129;-71
2021/12/21 04:53:46;;;;;;;14.23;10.90;;;8.00;96.70;;;;;;4954253;28;20098;-71
2021/12/21 04:56:15;;;;;;;14.43;10.20;;;8.10;96.70;;;;;;4969786;28;20050;-71
2021/12/21 04:58:43;;;;;;;12.43;10.07;;;8.10;96.70;;;;;;4975084;28;20167;-71
2021/12/21 05:01:11;;;;;;;15.23;10.48;;;8.10;96.70;;;;;;4952416;28;20078;-71
2021/12/21 05:03:39;;;;;;;13.75;10.80;;;8.10;96.70;;;;;;4974754;28;20121;-71
2021/12/21 05:06:09;;;;;;;13.73;9.05;;;8.10;96.70;;;;;;4974666;28;20521;-71
2021/12/21 05:08:40;;;;;;;13.38;10.23;;;8.10;96.70;;;;;;4958781;28;20115;-71
2021/12/21 05:11:08;;;;;;;13.63;9.52;;;8.10;96.70;;;;;;4974952;28;20785;-71
2021/12/21 05:13:38;;;;;;;12.38;9.38;;;8.10;96.70;;;;;;4976651;28;20097;-71
2021/12/21 05:16:07;;;;;;;11.38;8.93;;;8.10;96.70;;;;;;4975997;28;20145;-71
2021/12/21 05:18:35;;;;;;;12.30;8.75;;;8.10;96.70;;;;;;4955885;28;20400;-71
2021/12/21 05:21:04;;;;;;;13.18;8.23;;;8.10;96.70;;;;;;4974930;28;20128;-71
2021/12/21 05:23:33;;;;;;;11.82;7.45;;;8.10;96.70;;;;;;4975693;28;20053;-71
2021/12/21 05:26:01;;;;;;;9.65;7.35;;;8.10;96.70;;;;;;4960717;28;20046;-71
2021/12/21 05:28:30;;;;;;;11.15;7.22;;;8.10;96.70;;;;;;4971467;28;20547;-71
2021/12/21 05:30:59;;;;;;;11.77;8.50;;;8.10;96.70;;;;;;4975183;28;20058;-71
2021/12/21 05:33:28;;;;;;;10.20;8.35;;;8.10;96.70;;;;;;4957583;28;20067;-71
2021/12/21 05:35:56;;;;;;;14.80;9.57;;;8.00;96.70;;;;;;4955772;28;20042;-71
2021/12/21 05:38:31;;;;;;;12.75;9.48;;;8.00;96.70;;;;;;4959338;28;20035;-71
2021/12/21 05:41:03;;;;;;;12.75;9.68;;;7.90;96.70;;;;;;4958620;28;20505;-71
2021/12/21 05:43:32;;;;;;;12.80;9.75;;;7.90;96.70;;;;;;4963369;28;20908;-71
2021/12/21 05:46:00;;;;;;;12.75;9.48;;;7.90;96.70;;;;;;4950200;28;20476;-71
2021/12/21 05:48:28;;;;;;;15.05;9.93;;;7.90;96.70;;;;;;4956348;28;20532;-71
2021/12/21 05:50:56;;;;;;;14.75;10.73;;;7.90;96.70;;;;;;4958519;28;20158;-71
2021/12/21 05:53:24;;;;;;;13.75;10.85;;;7.90;96.70;;;;;;4957984;28;20039;-70
2021/12/21 05:55:52;;;;;;;13.93;11.18;;;7.90;96.70;;;;;;4954804;28;20122;-71
2021/12/21 05:58:22;;;;;;;13.63;10.55;;;7.90;96.70;;;;;;4942982;28;20051;-71
2021/12/21 06:00:50;;;;;;;13.43;10.50;;;7.90;96.70;;;;;;4949695;28;20057;-71
2021/12/21 06:03:18;;;;;;;13.10;8.23;;;7.80;96.70;;;;;;4951511;28;20038;-71
2021/12/21 06:05:46;;;;;;;11.15;8.45;;;7.50;96.70;;;;;;4950646;28;20386;-71
2021/12/21 06:08:15;;;;;;;11.70;8.85;;;7.50;96.70;;;;;;4960570;28;20055;-71
2021/12/21 06:10:45;;;;;;;12.82;9.20;;;7.60;96.70;;;;;;4958644;28;20042;-71
2021/12/21 06:26:39;;;;;;;11.32;9.35;;;7.50;96.70;;;;;;4954589;28;20898;-72
2021/12/21 06:29:08;;;;;;;12.85;9.00;;;7.50;96.70;;;;;;4947933;28;20047;-72
2021/12/21 06:31:39;;;;;;;12.73;9.18;;;7.50;96.70;;;;;;4953952;28;20504;-72
2021/12/21 06:34:08;;;;;;;14.25;9.43;;;7.50;96.70;;;;;;4954930;28;20136;-72
2021/12/21 06:36:36;;;;;;;12.57;8.93;;;7.50;96.70;;;;;;4952879;28;20154;-72
2021/12/21 06:39:08;;;;;;;17.63;12.15;;;7.60;96.70;;;;;;4953821;28;20052;-72
2021/12/21 06:41:37;;;;;;;14.48;10.55;;;7.60;96.70;;;;;;4957073;28;20732;-72
2021/12/21 06:44:08;;;;;;;13.23;10.10;;;7.50;96.70;;;;;;4955440;28;20067;-72
2021/12/21 06:51:58;;;;;;;12.95;10.10;;;7.40;96.70;;;;;;4954025;28;20489;-72
2021/12/21 06:54:26;;;;;;;16.25;11.88;;;7.50;96.70;;;;;;4976588;28;20125;-72
2021/12/21 06:56:54;;;;;;;15.40;10.40;;;7.50;96.70;;;;;;4937865;28;20427;-72
2021/12/21 06:59:22;;;;;;;13.77;10.55;;;7.50;96.70;;;;;;4979635;28;20050;-72
2021/12/21 07:01:52;;;;;;;12.65;10.18;;;7.50;96.70;;;;;;4955905;28;20042;-71
2021/12/21 07:04:21;;;;;;;14.05;10.63;;;7.60;96.70;;;;;;4956007;28;20050;-72
2021/12/21 07:06:51;;;;;;;15.10;11.73;;;7.60;96.70;;;;;;4972609;28;20068;-72
2021/12/21 07:09:41;;;;;;;15.52;11.50;;;7.70;96.70;;;;;;4977040;28;20092;-72
2021/12/21 07:20:14;;;;;;;17.90;11.82;;;7.60;96.70;;;;;;4974303;28;20591;-72
2021/12/21 07:22:42;;;;;;;16.60;11.80;;;7.70;96.70;;;;;;4973282;28;20046;-72
2021/12/21 07:25:10;;;;;;;19.15;11.40;;;7.70;96.70;;;;;;4974166;28;20603;-72
2021/12/21 07:27:38;;;;;;;17.63;11.35;;;7.60;96.70;;;;;;4970253;28;20065;-72
2021/12/21 07:30:07;;;;;;;17.95;10.52;;;7.70;96.70;;;;;;4973844;28;20054;-71
2021/12/21 07:32:37;;;;;;;18.67;9.43;;;7.70;96.70;;;;;;4976355;28;20517;-72
2021/12/21 07:35:07;;;;;;;17.90;9.77;;;7.70;96.70;;;;;;4965908;28;20047;-72
2021/12/21 07:37:35;;;;;;;20.45;10.65;;;7.70;96.70;;;;;;4937375;28;20050;-72
2021/12/21 07:40:04;;;;;;;19.63;10.52;;;7.70;96.70;;;;;;4967165;28;20524;-72
2021/12/21 07:42:32;;;;;;;18.58;10.15;;;7.80;96.70;;;;;;4970894;28;20398;-71
2021/12/21 07:45:01;;;;;;;19.98;9.50;;;7.80;96.70;;;;;;4953964;28;20050;-72
2021/12/21 07:47:29;;;;;;;16.48;8.95;;;7.80;96.70;;;;;;4974487;28;20054;-72
2021/12/21 07:49:59;;;;;;;16.85;9.05;;;7.80;96.70;;;;;;4973774;28;20527;-72
2021/12/21 07:52:28;;;;;;;15.05;8.57;;;7.90;96.70;;;;;;4956292;28;20046;-72
2021/12/21 07:54:56;;;;;;;15.45;8.45;;;7.90;96.70;;;;;;4969906;28;20046;-71
2021/12/21 07:57:24;;;;;;;12.32;8.18;;;7.90;96.70;;;;;;4954434;28;20452;-71
2021/12/21 07:59:53;;;;;;;16.35;9.40;;;8.00;96.70;;;;;;4974720;28;20042;-75
2021/12/21 08:02:24;;;;;;;14.80;9.57;;;8.00;96.70;;;;;;4953195;28;20213;-72
2021/12/21 08:04:53;;;;;;;16.67;9.60;;;8.00;96.70;;;;;;4968247;28;20474;-72
2021/12/21 08:07:29;;;;;;;15.73;9.63;;;8.10;96.70;;;;;;4971687;28;20126;-74
2021/12/21 08:10:06;;;;;;;17.83;11.77;;;8.10;96.70;;;;;;4957548;28;20050;-72
2021/12/21 08:12:35;;;;;;;17.65;11.23;;;8.10;96.70;;;;;;4970631;28;20515;-72
2021/12/21 08:15:03;;;;;;;14.85;10.65;;;8.10;96.70;;;;;;4969726;28;20034;-74
2021/12/21 08:17:31;;;;;;;15.75;10.95;;;8.20;96.70;;;;;;4940072;28;20046;-72
2021/12/21 08:19:59;;;;;;;15.50;11.00;;;8.10;96.70;;;;;;4971402;28;20469;-71
2021/12/21 08:22:29;;;;;;;14.05;10.70;;;8.10;96.70;;;;;;4969601;28;20513;-71
2021/12/21 08:24:57;;;;;;;15.52;10.80;;;8.10;96.70;;;;;;4971129;28;20049;-72
2021/12/21 08:27:25;;;;;;;13.40;10.55;;;8.10;96.70;;;;;;4945080;28;20041;-72
2021/12/21 08:29:53;;;;;;;17.98;10.73;;;8.20;96.70;;;;;;4955378;28;20048;-72
2021/12/21 08:32:22;;;;;;;13.90;10.13;;;8.30;96.70;;;;;;4970467;28;20034;-72
2021/12/21 08:34:50;;;;;;;13.48;10.25;;;8.40;96.70;;;;;;4970334;28;20069;-72
2021/12/21 08:37:18;;;;;;;16.92;10.52;;;8.40;96.70;;;;;;4971924;28;20049;-72
2021/12/21 08:39:48;;;;;;;13.43;9.40;;;8.50;96.70;;;;;;4952238;28;20042;-72
2021/12/21 08:42:16;;;;;;;13.23;10.48;;;8.50;96.70;;;;;;4978110;28;20417;-71
2021/12/21 08:44:45;;;;;;;13.00;10.38;;;8.50;96.70;;;;;;4955954;28;20046;-71
2021/12/21 08:47:14;;;;;;;14.15;10.57;;;8.50;96.70;;;;;;4974768;28;20419;-72
2021/12/21 08:49:45;;;;;;;18.23;11.30;;;8.50;96.70;;;;;;4969334;28;20074;-72
2021/12/21 08:52:13;;;;;;;15.82;10.20;;;8.50;96.70;;;;;;4973917;28;20390;-71
2021/12/21 08:54:42;;;;;;;15.40;11.48;;;8.50;96.70;;;;;;4957178;28;20053;-72
2021/12/21 08:57:12;;;;;;;11.80;9.57;;;8.60;96.70;;;;;;4935597;28;20398;-70
2021/12/21 08:59:40;;;;;;;13.85;10.90;;;8.70;96.70;;;;;;4957611;28;20117;-71
2021/12/21 09:02:08;;;;;;;15.70;10.65;;;8.70;96.70;;;;;;4962201;28;20638;-71
2021/12/21 09:04:39;;;;;;;13.85;10.73;;;8.70;96.70;;;;;;4968497;28;20053;-71
2021/12/21 09:07:07;;;;;;;12.85;11.05;;;8.80;96.70;;;;;;4970199;28;20498;-71
2021/12/21 09:09:36;;;;;;;13.90;11.02;;;8.80;96.70;;;;;;4946481;28;20057;-70
2021/12/21 09:12:05;;;;;;;16.80;12.10;;;8.80;96.70;;;;;;4966381;28;20125;-71
2021/12/21 09:14:35;;;;;;;17.60;11.77;;;8.90;96.70;;;;;;4944090;28;20066;-71
2021/12/21 09:17:04;;;;;;;16.30;11.35;;;8.90;96.70;;;;;;4953429;28;20140;-71
2021/12/21 09:19:32;;;;;;;15.50;12.27;;;8.80;96.70;;;;;;4970196;28;20039;-74
2021/12/21 09:22:01;;;;;;;15.70;11.20;;;8.90;96.70;;;;;;4971209;28;20122;-69
2021/12/21 09:24:29;;;;;;;17.63;12.15;;;8.90;96.70;;;;;;4975232;28;20073;-71
2021/12/21 09:26:57;;;;;;;16.40;12.05;;;8.80;96.70;;;;;;4969814;28;20043;-70
2021/12/21 09:29:25;;;;;;;16.88;11.98;;;8.90;96.70;;;;;;4972674;28;20042;-70
2021/12/21 09:31:55;;;;;;;17.70;12.63;;;8.90;96.70;;;;;;4951365;28;20073;-71
2021/12/21 09:34:23;;;;;;;16.55;11.32;;;9.00;96.70;;;;;;4960633;28;20042;-70
2021/12/21 09:36:52;;;;;;;14.60;11.52;;;9.00;96.70;;;;;;4971960;28;20046;-70
2021/12/21 09:39:20;;;;;;;15.45;12.20;;;9.00;96.70;;;;;;4971297;28;20050;-70
2021/12/21 09:41:48;;;;;;;17.85;13.43;;;9.10;96.70;;;;;;4951773;28;20113;-70
2021/12/21 09:44:17;;;;;;;15.35;12.88;;;9.10;96.70;;;;;;4972386;28;20090;-70
2021/12/21 09:46:46;;;;;;;17.90;13.80;;;9.10;96.70;;;;;;4974737;28;20060;-70
2021/12/21 09:49:15;;;;;;;18.35;13.40;;;9.10;96.70;;;;;;4969004;28;20046;-71
2021/12/21 09:51:44;;;;;;;18.00;13.43;;;9.20;96.70;;;;;;4939505;28;20133;-70
2021/12/21 09:54:16;;;;;;;20.13;15.18;;;9.20;96.70;;;;;;4941154;28;20046;-71
2021/12/21 09:56:45;;;;;;;19.75;14.65;;;9.30;96.70;;;;;;4976173;28;20039;-69
2021/12/21 09:59:18;;;;;;;18.45;14.20;;;9.30;96.70;;;;;;4972133;28;20031;-70
2021/12/21 10:01:46;;;;;;;17.17;14.38;;;9.40;96.70;;;;;;4976167;28;20045;-71
2021/12/21 10:04:17;;;;;;;17.70;14.48;;;9.40;96.70;;;;;;4953691;28;20054;-71
2021/12/21 10:06:48;;;;;;;17.42;13.57;;;9.50;96.70;;;;;;4970604;28;20129;-71
2021/12/21 10:09:21;;;;;;;19.65;13.68;;;9.60;96.70;;;;;;4972123;28;20050;-73
2021/12/21 10:12:05;;;;;;;14.13;12.55;;;9.60;96.70;;;;;;4960065;28;20046;-70
2021/12/21 10:14:33;;;;;;;16.73;12.63;;;9.60;96.70;;;;;;4974851;28;20034;-71
2021/12/21 10:17:05;;;;;;;17.50;12.27;;;9.60;96.70;;;;;;4975802;28;20625;-71
2021/12/21 10:19:36;;;;;;;17.58;12.07;;;9.60;96.70;;;;;;4956205;28;20326;-71
2021/12/21 10:22:11;;;;;;;17.80;13.07;;;9.70;96.70;;;;;;4972077;28;20039;-71
2021/12/21 10:24:45;;;;;;;15.70;13.07;;;9.80;96.70;;;;;;4954664;28;20046;-71
2021/12/21 10:27:15;;;;;;;17.60;12.77;;;9.90;96.70;;;;;;4974153;28;20034;-70
2021/12/21 10:29:44;;;;;;;17.98;13.35;;;9.90;96.70;;;;;;4975761;28;20045;-71
2021/12/21 10:32:20;;;;;;;19.60;15.18;;;10.00;96.70;;;;;;4972757;28;20042;-71
2021/12/21 10:34:56;;;;;;;18.30;13.48;;;10.10;96.70;;;;;;4969121;28;20054;-71
2021/12/21 10:37:27;;;;;;;17.98;14.20;;;10.10;96.70;;;;;;4964776;28;20046;-71
2021/12/21 10:40:23;;;;;;;17.65;13.57;;;10.10;96.70;;;;;;4980714;28;20066;-71
2021/12/21 10:42:54;;;;;;;18.48;14.75;;;10.20;96.70;;;;;;4967921;28;20054;-71
2021/12/21 10:45:28;;;;;;;18.80;15.32;;;10.20;96.70;;;;;;4957496;28;20548;-71
2021/12/21 10:47:57;;;;;;;20.88;15.02;;;10.20;96.70;;;;;;4949920;28;20043;-71
2021/12/21 10:50:29;;;;;;;19.48;15.82;;;10.30;96.70;;;;;;4965063;28;20043;-72
2021/12/21 10:52:58;;;;;;;22.70;16.25;;;10.30;96.70;;;;;;4975849;28;20512;-72
2021/12/21 10:55:28;;;;;;;21.77;16.38;;;10.30;96.70;;;;;;4977155;28;20121;-72
2021/12/21 10:58:18;;;;;;;24.83;17.40;;;10.40;96.70;;;;;;4942713;28;20050;-72
2021/12/21 11:00:53;;;;;;;23.60;17.52;;;10.50;96.70;;;;;;4952709;28;20064;-71
2021/12/21 11:03:31;;;;;;;22.38;18.45;;;10.50;96.70;;;;;;4974300;28;20698;-71
2021/12/21 11:06:12;;;;;;;26.02;19.38;;;10.60;96.70;;;;;;4970956;28;20097;-71
2021/12/21 11:08:43;;;;;;;26.00;18.73;;;10.70;96.70;;;;;;4942519;28;20153;-71
2021/12/21 11:11:26;;;;;;;26.98;19.45;;;10.80;96.70;;;;;;4952867;28;20054;-71
2021/12/21 11:14:08;;;;;;;24.92;19.50;;;10.80;96.70;;;;;;4975546;28;20115;-71
2021/12/21 11:16:39;;;;;;;26.23;19.33;;;10.90;96.70;;;;;;4974068;28;20448;-71
2021/12/21 11:19:08;;;;;;;23.25;18.48;;;10.90;96.70;;;;;;4971637;28;20046;-71
2021/12/21 11:21:39;;;;;;;26.02;19.02;;;11.00;96.70;;;;;;4971504;28;20405;-71
2021/12/21 11:24:09;;;;;;;23.05;18.50;;;11.00;96.70;;;;;;4972357;28;20050;-70
2021/12/21 11:26:39;;;;;;;25.63;18.90;;;11.10;96.70;;;;;;4971490;28;20517;-71
2021/12/21 11:29:12;;;;;;;22.50;18.48;;;11.10;96.70;;;;;;4974776;28;20563;-71
2021/12/21 11:31:43;;;;;;;24.85;17.90;;;11.00;96.70;;;;;;4939660;28;20041;-71
2021/12/21 11:34:16;;;;;;;22.95;19.27;;;11.10;96.70;;;;;;4943922;28;20145;-71
2021/12/21 11:39:34;;;;;;;22.52;13.98;;;11.20;96.70;;;;;;4975881;28;20046;-71
2021/12/21 11:42:04;;;;;;;16.10;11.15;;;11.20;96.70;;;;;;4970401;28;20595;-71
2021/12/21 11:44:46;;;;;;;16.92;10.43;;;11.30;96.70;;;;;;4973460;28;20554;-71
2021/12/21 11:47:18;;;;;;;14.07;11.07;;;11.30;96.70;;;;;;4946351;28;20054;-71
2021/12/21 11:49:50;;;;;;;13.32;10.02;;;11.30;96.70;;;;;;4970008;28;20058;-71
2021/12/21 11:52:22;;;;;;;15.00;10.93;;;11.30;96.70;;;;;;4971183;28;20606;-71
2021/12/21 11:54:53;;;;;;;15.32;12.00;;;11.30;96.70;;;;;;4970624;28;20039;-71
2021/12/21 11:57:34;;;;;;;14.10;11.43;;;11.40;96.70;;;;;;4972049;28;20061;-71
2021/12/21 12:00:11;;;;;;;14.80;10.50;;;11.50;96.70;;;;;;4970469;28;20038;-71
2021/12/21 12:02:39;;;;;;;13.25;10.73;;;11.60;96.70;;;;;;4977006;28;20061;-71
2021/12/21 12:05:16;;;;;;;14.25;10.15;;;11.60;96.70;;;;;;4972430;28;20054;-71
2021/12/21 12:07:57;;;;;;;11.48;10.15;;;11.60;96.70;;;;;;4959126;28;20429;-71
2021/12/21 12:10:25;;;;;;;14.35;10.70;;;11.70;96.70;;;;;;4972426;28;20057;-70
2021/12/21 12:12:53;;;;;;;12.57;9.38;;;11.70;96.70;;;;;;4973095;28;20049;-71
2021/12/21 12:15:21;;;;;;;12.32;9.07;;;11.60;96.70;;;;;;4969153;28;20086;-71
2021/12/21 12:17:51;;;;;;;12.50;8.93;;;11.60;96.70;;;;;;4973943;28;20046;-70
2021/12/21 12:20:28;;;;;;;16.55;10.20;;;11.70;96.70;;;;;;4971365;28;20476;-70
2021/12/21 12:23:06;;;;;;;13.35;9.82;;;11.60;96.70;;;;;;4956474;28;20050;-70
2021/12/21 12:25:35;;;;;;;16.35;9.75;;;11.60;96.70;;;;;;4975905;28;20519;-71
2021/12/21 12:28:05;;;;;;;15.18;10.07;;;11.70;96.70;;;;;;4957440;28;20476;-70
2021/12/21 12:30:33;;;;;;;15.50;9.35;;;11.70;96.70;;;;;;4969137;28;20331;-70
2021/12/21 12:33:06;;;;;;;12.55;8.82;;;11.70;96.70;;;;;;4961214;28;20297;-70
2021/12/21 12:35:36;;;;;;;14.13;9.23;;;11.70;96.70;;;;;;4974503;28;20429;-70
2021/12/21 12:38:17;;;;;;;13.23;9.23;;;11.60;96.70;;;;;;4952853;28;20043;-70
2021/12/21 12:40:48;;;;;;;13.48;9.75;;;11.60;96.70;;;;;;4972678;28;20057;-70
2021/12/21 12:43:20;;;;;;;13.68;9.55;;;11.60;96.70;;;;;;4958123;28;20074;-71
2021/12/21 12:45:52;;;;;;;13.05;9.73;;;11.60;96.70;;;;;;4972793;28;20058;-71
2021/12/21 12:48:24;;;;;;;13.77;9.18;;;11.60;96.70;;;;;;4968849;28;20027;-70
2021/12/21 12:50:54;;;;;;;15.60;9.55;;;11.60;96.70;;;;;;4971864;28;20135;-71
2021/12/21 12:53:34;;;;;;;15.35;11.23;;;11.60;96.70;;;;;;4973036;28;20663;-70
2021/12/21 12:56:04;;;;;;;13.82;9.63;;;11.60;96.70;;;;;;4972453;28;20129;-70
2021/12/21 12:58:50;;;;;;;15.18;10.20;;;11.50;96.70;;;;;;4972719;28;20045;-71
2021/12/21 13:01:24;;;;;;;14.50;10.77;;;11.50;96.70;;;;;;4971256;28;20073;-71
2021/12/21 13:03:55;;;;;;;14.00;10.25;;;11.50;96.70;;;;;;4944986;28;20161;-71
2021/12/21 13:06:26;;;;;;;15.95;11.40;;;11.40;96.70;;;;;;4970375;28;20531;-71
2021/12/21 13:08:56;;;;;;;17.20;11.43;;;11.40;96.70;;;;;;4952871;28;20078;-71
2021/12/21 13:11:28;;;;;;;14.55;11.52;;;11.50;96.70;;;;;;4973101;28;20126;-71
2021/12/21 13:14:00;;;;;;;16.13;12.30;;;11.50;96.70;;;;;;4974258;28;20038;-71
2021/12/21 13:16:32;;;;;;;19.67;13.18;;;11.40;96.70;;;;;;4968697;28;20710;-71
2021/12/21 13:19:02;;;;;;;16.95;12.73;;;11.40;96.70;;;;;;4973000;28;20039;-71
2021/12/21 13:21:37;;;;;;;17.15;13.63;;;11.40;96.70;;;;;;4971594;28;20469;-71
2021/12/21 13:24:10;;;;;;;17.30;14.25;;;11.40;96.70;;;;;;4939651;28;20069;-71
2021/12/21 13:26:41;;;;;;;16.95;13.55;;;11.30;96.70;;;;;;4971938;28;20043;-71
2021/12/21 13:29:10;;;;;;;16.17;13.30;;;11.30;96.70;;;;;;4956148;28;20464;-71
2021/12/21 13:31:39;;;;;;;17.52;11.52;;;11.30;96.70;;;;;;4962347;28;20050;-71
2021/12/21 13:34:07;;;;;;;14.50;11.18;;;11.30;96.70;;;;;;4978467;28;20070;-71
2021/12/21 13:36:38;;;;;;;18.38;12.02;;;11.20;96.70;;;;;;4954141;28;20039;-71
2021/12/21 13:39:18;;;;;;;17.85;13.88;;;11.20;96.70;;;;;;4975498;28;20046;-71
2021/12/21 13:41:48;;;;;;;18.20;11.88;;;11.20;96.70;;;;;;4957891;28;20046;-71
2021/12/21 13:44:24;;;;;;;13.82;11.68;;;11.10;96.70;;;;;;4957874;28;20420;-71
2021/12/21 13:46:54;;;;;;;18.50;11.52;;;11.10;96.70;;;;;;4958240;28;20062;-71
2021/12/21 13:49:55;;;;;;;16.20;12.57;;;11.10;96.70;;;;;;4960374;28;20133;-71
2021/12/21 13:52:26;;;;;;;18.13;13.93;;;11.10;96.70;;;;;;4958215;28;20071;-71
2021/12/21 13:54:56;;;;;;;17.63;13.23;;;11.10;96.70;;;;;;4961968;28;20536;-71
2021/12/21 13:57:25;;;;;;;18.63;14.10;;;11.20;96.70;;;;;;4956471;28;20039;-71
2021/12/21 13:59:56;;;;;;;19.35;14.15;;;11.20;96.70;;;;;;4954878;28;20069;-71
2021/12/21 14:02:34;;;;;;;19.00;14.70;;;11.20;96.70;;;;;;4960935;28;20543;-71
2021/12/21 14:05:05;;;;;;;16.52;13.02;;;11.20;96.70;;;;;;4960044;28;20069;-71
2021/12/21 14:07:36;;;;;;;16.67;13.20;;;11.20;96.70;;;;;;4968367;28;20063;-71
2021/12/21 14:10:17;;;;;;;15.80;12.07;;;11.30;96.70;;;;;;4972783;28;20120;-71
2021/12/21 14:12:55;;;;;;;17.63;13.57;;;11.30;96.70;;;;;;4970032;28;20066;-71